Time;durP1;ratioP1;P1;durP2;ratioP2;P2;SDS_P1;SDS_P2;PMS_P1;PMS_P2;Temp;Humidity;BMP_temperature;BMP_pressure;BME280_temperature;BME280_humidity;BME280_pressure;Samples;Min_cycle;Max_cycle;Signal;HPM_P1;HPM_P2
2023/05/25 00:00:17;;;;;;;8.60;4.07;;;10.90;99.90;;;;;;5011385;28;20053;-80
2023/05/25 00:02:45;;;;;;;10.50;4.30;;;10.90;99.90;;;;;;5010391;28;20033;-80
2023/05/25 00:05:11;;;;;;;11.38;4.90;;;10.80;99.90;;;;;;5010257;28;20117;-80
2023/05/25 00:07:37;;;;;;;15.55;4.75;;;10.90;99.90;;;;;;5012124;28;20068;-80
2023/05/25 00:10:05;;;;;;;14.70;5.13;;;10.90;99.90;;;;;;5011853;28;20034;-80
2023/05/25 00:12:31;;;;;;;13.40;4.90;;;10.90;99.90;;;;;;5012089;28;20034;-80
2023/05/25 00:14:56;;;;;;;13.37;4.70;;;10.90;99.90;;;;;;5012422;28;20087;-79
2023/05/25 00:17:23;;;;;;;13.32;5.05;;;10.90;99.90;;;;;;5010266;28;20029;-79
2023/05/25 00:19:49;;;;;;;13.55;4.93;;;10.90;99.90;;;;;;5011938;28;20030;-80
2023/05/25 00:22:14;;;;;;;12.00;5.22;;;10.90;99.90;;;;;;5010948;28;20085;-80
2023/05/25 00:24:40;;;;;;;13.40;4.78;;;10.90;99.90;;;;;;5009336;28;20100;-80
2023/05/25 00:27:06;;;;;;;9.82;4.50;;;10.90;99.90;;;;;;5009983;28;20161;-80
2023/05/25 00:29:32;;;;;;;13.88;5.05;;;10.90;99.90;;;;;;5012092;28;20185;-80
2023/05/25 00:31:58;;;;;;;13.30;4.70;;;10.90;99.90;;;;;;5010913;28;20061;-80
2023/05/25 00:34:24;;;;;;;15.00;5.35;;;10.90;99.90;;;;;;5010499;28;20685;-80
2023/05/25 00:36:49;;;;;;;13.02;5.20;;;10.90;99.90;;;;;;5010438;28;20087;-80
2023/05/25 00:39:16;;;;;;;9.52;4.60;;;10.90;99.90;;;;;;5009928;28;20029;-80
2023/05/25 00:41:47;;;;;;;15.07;4.50;;;10.90;99.90;;;;;;5010206;28;20037;-80
2023/05/25 00:44:13;;;;;;;10.35;5.07;;;10.90;99.90;;;;;;5010704;28;20099;-80
2023/05/25 00:46:50;;;;;;;11.93;4.88;;;10.90;99.90;;;;;;5007702;28;20057;-80
2023/05/25 00:49:17;;;;;;;13.25;5.07;;;10.90;99.90;;;;;;5009564;28;20049;-79
2023/05/25 00:51:45;;;;;;;21.92;5.57;;;10.90;99.90;;;;;;5009898;28;20030;-80
2023/05/25 00:54:14;;;;;;;15.27;4.90;;;10.90;99.90;;;;;;5009929;28;20501;-80
2023/05/25 00:56:43;;;;;;;12.77;5.43;;;10.90;99.90;;;;;;5009053;28;20022;-80
2023/05/25 00:59:13;;;;;;;13.53;4.93;;;10.90;99.90;;;;;;5008772;28;20029;-79
2023/05/25 01:01:39;;;;;;;13.63;4.87;;;10.80;99.90;;;;;;5006441;28;20033;-80
2023/05/25 01:04:08;;;;;;;12.15;5.03;;;10.80;99.90;;;;;;5009436;28;20030;-80
2023/05/25 01:06:37;;;;;;;13.13;4.45;;;10.80;99.90;;;;;;5008958;28;20458;-80
2023/05/25 01:09:07;;;;;;;11.03;3.93;;;10.80;99.90;;;;;;5008013;28;20030;-80
2023/05/25 01:11:40;;;;;;;13.13;4.47;;;10.80;99.90;;;;;;5008920;28;20054;-80
2023/05/25 01:14:06;;;;;;;12.82;4.95;;;10.80;99.90;;;;;;5009404;28;20021;-80
2023/05/25 01:16:33;;;;;;;12.30;4.53;;;10.80;99.90;;;;;;5009528;28;20100;-80
2023/05/25 01:18:58;;;;;;;14.30;4.90;;;10.80;99.90;;;;;;5009334;28;20041;-79
2023/05/25 01:22:02;;;;;;;13.10;5.30;;;10.80;99.90;;;;;;5008617;28;20034;-79
2023/05/25 01:24:35;;;;;;;16.03;4.87;;;10.80;99.90;;;;;;5008433;28;20421;-79
2023/05/25 01:27:31;;;;;;;13.68;4.90;;;10.80;99.90;;;;;;5008355;28;20524;-80
2023/05/25 01:29:57;;;;;;;;;;;10.70;99.90;;;;;;5007793;28;20060;-79
2023/05/25 01:32:24;;;;;;;12.45;4.40;;;10.70;99.90;;;;;;5009047;28;19975;-80
2023/05/25 01:34:51;;;;;;;11.13;4.60;;;10.70;99.90;;;;;;5007734;28;20485;-79
2023/05/25 01:37:19;;;;;;;15.13;4.70;;;10.70;99.90;;;;;;5006516;28;20029;-80
2023/05/25 01:39:44;;;;;;;12.50;4.87;;;10.60;99.90;;;;;;5006519;28;20088;-80
2023/05/25 01:42:10;;;;;;;14.97;5.90;;;10.60;99.90;;;;;;5007502;28;20042;-80
2023/05/25 01:44:37;;;;;;;17.13;5.47;;;10.60;99.90;;;;;;5008229;28;20034;-80
2023/05/25 01:47:38;;;;;;;12.77;4.60;;;10.60;99.90;;;;;;5006722;28;20030;-80
2023/05/25 01:50:35;;;;;;;12.50;5.30;;;10.60;99.90;;;;;;5002524;28;20053;-80
2023/05/25 01:53:25;;;;;;;18.77;5.00;;;10.60;99.90;;;;;;5007460;28;20061;-80
2023/05/25 01:55:58;;;;;;;13.77;5.37;;;10.50;99.90;;;;;;5006242;28;20037;-80
2023/05/25 01:58:26;;;;;;;14.33;5.50;;;10.50;99.90;;;;;;5005389;28;20034;-80
2023/05/25 02:00:53;;;;;;;10.53;5.17;;;10.40;99.90;;;;;;5005385;28;20042;-80
2023/05/25 02:03:19;;;;;;;14.50;5.37;;;10.40;99.90;;;;;;5005929;28;20572;-80
2023/05/25 02:05:45;;;;;;;15.33;5.33;;;10.40;99.90;;;;;;5004270;28;20187;-80
2023/05/25 02:08:11;;;;;;;13.60;5.53;;;10.30;99.90;;;;;;5017941;22;20046;-87
2023/05/25 02:10:36;;;;;;;18.73;6.73;;;10.30;99.90;;;;;;5006794;28;20671;-88
2023/05/25 02:13:02;;;;;;;13.23;5.20;;;10.20;99.90;;;;;;5008442;28;21225;-87
2023/05/25 02:15:31;;;;;;;16.87;5.77;;;10.10;99.90;;;;;;5007320;28;20028;-87
2023/05/25 02:17:58;;;;;;;16.93;5.70;;;10.10;99.90;;;;;;5005818;28;20196;-87
2023/05/25 02:20:24;;;;;;;13.63;5.30;;;10.10;99.90;;;;;;5005336;28;20410;-87
2023/05/25 02:22:50;;;;;;;14.63;5.87;;;10.00;99.90;;;;;;5005850;28;20061;-86
2023/05/25 02:25:16;;;;;;;17.73;6.23;;;10.00;99.90;;;;;;5007266;28;20046;-86
2023/05/25 02:27:42;;;;;;;19.37;5.83;;;10.00;99.90;;;;;;5008503;28;20551;-85
2023/05/25 02:30:07;;;;;;;13.17;5.37;;;10.00;99.90;;;;;;5007961;28;20041;-87
2023/05/25 02:32:34;;;;;;;11.27;5.90;;;10.00;99.90;;;;;;5008439;28;20034;-86
2023/05/25 02:34:59;;;;;;;15.87;5.67;;;9.90;99.90;;;;;;5006484;28;20033;-86
2023/05/25 02:37:25;;;;;;;14.87;5.23;;;9.90;99.90;;;;;;5006169;28;20034;-86
2023/05/25 02:39:51;;;;;;;13.93;5.50;;;9.90;99.90;;;;;;5015331;28;20034;-85
2023/05/25 02:42:16;;;;;;;13.37;5.93;;;9.90;99.90;;;;;;5017079;28;20051;-85
2023/05/25 02:44:47;;;;;;;14.07;6.20;;;9.90;99.90;;;;;;5014523;28;20034;-86
2023/05/25 02:47:16;;;;;;;14.73;5.90;;;10.00;99.90;;;;;;5014751;28;20066;-85
2023/05/25 02:49:43;;;;;;;14.23;6.20;;;10.00;99.90;;;;;;5015811;28;20041;-85
2023/05/25 02:52:08;;;;;;;18.47;6.10;;;10.00;99.90;;;;;;5015357;28;20022;-85
2023/05/25 02:54:37;;;;;;;18.40;6.33;;;10.10;99.90;;;;;;5014804;28;20041;-85
2023/05/25 02:57:05;;;;;;;17.93;7.90;;;10.10;99.90;;;;;;5012143;28;20038;-85
2023/05/25 02:59:31;;;;;;;14.10;6.17;;;10.20;99.90;;;;;;5013582;28;20032;-85
2023/05/25 03:01:58;;;;;;;12.90;6.67;;;10.20;99.90;;;;;;5014629;28;20023;-84
2023/05/25 03:04:23;;;;;;;13.57;7.00;;;10.20;99.90;;;;;;5015588;28;20034;-85
2023/05/25 03:06:49;;;;;;;15.10;7.53;;;10.20;99.90;;;;;;5013989;28;20763;-86
2023/05/25 03:09:14;;;;;;;17.40;8.27;;;10.30;99.90;;;;;;5017239;28;20057;-85
2023/05/25 03:11:40;;;;;;;16.07;7.80;;;10.30;99.90;;;;;;5019559;28;20113;-85
2023/05/25 03:14:06;;;;;;;17.03;7.60;;;10.30;99.90;;;;;;5020641;28;20042;-85
2023/05/25 03:16:34;;;;;;;15.00;8.30;;;10.40;99.90;;;;;;5018330;28;20038;-86
2023/05/25 03:19:04;;;;;;;15.20;8.10;;;10.40;99.90;;;;;;5020786;28;20038;-84
2023/05/25 03:21:30;;;;;;;14.97;7.83;;;10.40;99.90;;;;;;5018346;28;20033;-85
2023/05/25 03:23:55;;;;;;;17.13;8.90;;;10.50;99.90;;;;;;5018805;28;20045;-85
2023/05/25 03:26:21;;;;;;;19.70;9.70;;;10.50;99.90;;;;;;5017912;28;20037;-86
2023/05/25 03:28:47;;;;;;;18.50;9.93;;;10.60;99.90;;;;;;5018355;28;20026;-85
2023/05/25 03:31:12;;;;;;;23.47;9.60;;;10.60;99.90;;;;;;5018924;28;20034;-85
2023/05/25 03:33:38;;;;;;;20.07;10.23;;;10.60;99.90;;;;;;5018584;28;20115;-85
2023/05/25 03:36:07;;;;;;;16.87;10.47;;;10.70;99.90;;;;;;5017228;28;20038;-85
2023/05/25 03:38:35;;;;;;;16.70;9.87;;;10.80;99.90;;;;;;5017731;28;20559;-85
2023/05/25 03:41:00;;;;;;;18.33;10.25;;;10.80;99.90;;;;;;5017061;28;20037;-85
2023/05/25 03:43:26;;;;;;;17.30;10.77;;;10.80;99.90;;;;;;5017111;28;20096;-85
2023/05/25 03:45:51;;;;;;;19.83;11.03;;;10.90;99.90;;;;;;5017749;28;20033;-85
2023/05/25 03:48:17;;;;;;;20.73;10.77;;;10.90;99.90;;;;;;5018537;28;20049;-85
2023/05/25 03:50:42;;;;;;;18.70;10.75;;;11.00;99.90;;;;;;5020463;28;20049;-85
2023/05/25 03:53:08;;;;;;;20.87;11.50;;;11.00;99.90;;;;;;5022067;28;20101;-85
2023/05/25 03:55:33;;;;;;;19.85;12.18;;;11.00;99.90;;;;;;5022853;28;20041;-85
2023/05/25 03:57:59;;;;;;;17.67;11.60;;;11.10;99.90;;;;;;5023971;28;20126;-85
2023/05/25 04:00:25;;;;;;;19.60;12.57;;;11.10;99.90;;;;;;5018278;28;20097;-85
2023/05/25 04:02:50;;;;;;;21.48;12.30;;;11.20;99.90;;;;;;5019433;28;20089;-85
2023/05/25 04:05:16;;;;;;;18.20;11.93;;;11.20;99.90;;;;;;5018620;28;20046;-85
2023/05/25 04:07:41;;;;;;;24.73;11.53;;;11.20;99.90;;;;;;5018406;28;20081;-85
2023/05/25 04:10:07;;;;;;;18.58;12.20;;;11.30;99.90;;;;;;5017380;28;20105;-85
2023/05/25 04:12:33;;;;;;;15.63;11.05;;;11.30;99.90;;;;;;5028689;28;20045;-82
2023/05/25 04:14:59;;;;;;;20.98;11.45;;;11.30;99.90;;;;;;5027981;28;20033;-82
2023/05/25 04:17:24;;;;;;;17.55;11.43;;;11.40;99.90;;;;;;5029649;28;20453;-83
2023/05/25 04:19:51;;;;;;;17.15;11.90;;;11.40;99.90;;;;;;5020708;28;20067;-83
2023/05/25 04:22:17;;;;;;;18.02;11.48;;;11.50;99.90;;;;;;5024464;28;20034;-82
2023/05/25 04:24:44;;;;;;;21.00;12.20;;;11.50;99.90;;;;;;5018263;28;20100;-82
2023/05/25 04:27:10;;;;;;;19.38;12.25;;;11.50;99.90;;;;;;5025701;28;20024;-82
2023/05/25 04:29:37;;;;;;;18.10;12.00;;;11.60;99.90;;;;;;5026776;28;20381;-82
2023/05/25 04:32:02;;;;;;;19.98;13.02;;;11.60;99.90;;;;;;5030553;28;20021;-82
2023/05/25 04:34:28;;;;;;;18.80;12.60;;;11.70;99.90;;;;;;5020134;28;20157;-82
2023/05/25 04:36:55;;;;;;;17.45;11.60;;;11.80;99.90;;;;;;5028372;28;20462;-83
2023/05/25 04:39:20;;;;;;;17.52;12.27;;;11.80;99.90;;;;;;5020521;28;20490;-84
2023/05/25 04:41:47;;;;;;;18.25;12.38;;;11.80;99.90;;;;;;5024706;28;20049;-82
2023/05/25 04:44:12;;;;;;;22.40;13.20;;;11.90;99.90;;;;;;5020641;28;20041;-83
2023/05/25 04:46:41;;;;;;;23.75;13.15;;;11.90;99.90;;;;;;5030026;22;20512;-82
2023/05/25 04:49:09;;;;;;;20.88;12.32;;;11.90;99.90;;;;;;5019850;28;20038;-82
2023/05/25 04:51:40;;;;;;;18.48;12.70;;;12.00;99.90;;;;;;5024182;28;20050;-82
2023/05/25 04:56:31;;;;;;;16.00;11.60;;;12.00;99.90;;;;;;5126640;22;20437;-83
2023/05/25 05:01:33;;;;;;;20.15;12.82;;;12.10;99.90;;;;;;5059393;22;20055;-82
2023/05/25 05:03:58;;;;;;;25.02;12.82;;;12.10;99.90;;;;;;5030382;28;20025;-82
2023/05/25 05:06:39;;;;;;;22.63;12.55;;;12.20;99.90;;;;;;5045550;28;20394;-82
2023/05/25 05:09:30;;;;;;;17.77;11.18;;;12.20;99.90;;;;;;5041406;28;20036;-82
2023/05/25 05:11:57;;;;;;;21.80;11.55;;;12.20;99.90;;;;;;5039326;28;20053;-83
2023/05/25 05:14:25;;;;;;;18.02;11.65;;;12.20;99.90;;;;;;5039474;28;20018;-82
2023/05/25 05:16:51;;;;;;;17.80;11.70;;;12.20;99.90;;;;;;5046294;28;20108;-84
2023/05/25 05:19:19;;;;;;;16.67;11.90;;;12.20;99.90;;;;;;5041997;28;20071;-82
2023/05/25 05:21:48;;;;;;;20.83;12.05;;;12.20;99.90;;;;;;5040387;28;20405;-84
2023/05/25 05:24:16;;;;;;;18.17;11.30;;;12.20;99.90;;;;;;5044481;28;20370;-84
2023/05/25 05:26:41;;;;;;;16.95;11.18;;;12.20;99.90;;;;;;5037590;28;20033;-83
2023/05/25 05:29:10;;;;;;;19.90;12.55;;;12.30;99.90;;;;;;5047813;28;20076;-82
2023/05/25 05:31:38;;;;;;;18.10;11.90;;;12.30;99.90;;;;;;5046039;28;20075;-84
2023/05/25 05:34:11;;;;;;;18.55;11.48;;;12.30;99.90;;;;;;5041888;28;20057;-84
2023/05/25 05:39:17;;;;;;;23.02;11.90;;;12.30;99.90;;;;;;5068287;22;20075;-83
2023/05/25 06:06:12;;;;;;;25.20;12.95;;;12.50;99.90;;;;;;5003699;23;20081;-86
2023/05/25 06:08:40;;;;;;;22.13;13.07;;;12.50;99.90;;;;;;4990447;28;20054;-88
2023/05/25 06:11:05;;;;;;;21.05;12.30;;;12.50;99.90;;;;;;4973947;28;20030;-86
2023/05/25 06:13:31;;;;;;;16.88;11.70;;;12.50;99.90;;;;;;4990480;28;20030;-85
2023/05/25 06:33:30;;;;;;;18.48;12.23;;;12.90;99.90;;;;;;5043425;22;20049;-86
2023/05/25 06:36:01;;;;;;;26.25;13.77;;;12.90;99.90;;;;;;5042559;28;20037;-86
2023/05/25 06:46:49;;;;;;;;;;;13.00;99.90;;;;;;5597360;22;20056;-81
2023/05/25 06:52:18;;;;;;;18.80;12.48;;;13.10;99.90;;;;;;5042417;23;20049;-83
2023/05/25 06:54:51;;;;;;;23.55;12.20;;;13.20;99.90;;;;;;5037352;28;20293;-86
2023/05/25 06:57:19;;;;;;;20.60;12.93;;;13.30;99.90;;;;;;5035209;28;20025;-84
2023/05/25 07:05:31;;;;;;;20.05;11.82;;;13.30;99.90;;;;;;5052102;22;20065;-82
2023/05/25 07:13:01;;;;;;;19.45;11.35;;;13.40;99.90;;;;;;5205573;22;20136;-83
2023/05/25 07:18:27;;;;;;;17.73;11.00;;;13.40;99.90;;;;;;5174175;22;20125;-83
2023/05/25 07:20:52;;;;;;;22.10;11.70;;;13.40;99.90;;;;;;5022839;28;20041;-85
2023/05/25 07:23:18;;;;;;;20.20;10.80;;;13.40;99.90;;;;;;5019630;28;20033;-84
2023/05/25 07:25:44;;;;;;;17.63;11.48;;;13.40;99.90;;;;;;5023330;28;20034;-86
2023/05/25 07:44:28;;;;;;;20.90;10.85;;;13.60;99.90;;;;;;5486040;22;20452;-83
2023/05/25 07:54:48;;;;;;;20.83;10.53;;;13.80;99.90;;;;;;6108958;22;20042;-83
2023/05/25 07:57:19;;;;;;;15.88;10.07;;;13.90;99.90;;;;;;5045809;28;20048;-87
2023/05/25 07:59:52;;;;;;;18.13;10.70;;;13.90;99.90;;;;;;5026808;28;20030;-87
2023/05/25 08:05:04;;;;;;;18.92;9.98;;;14.20;99.90;;;;;;5637512;22;20391;-84
2023/05/25 08:15:50;;;;;;;16.92;11.18;;;14.50;99.90;;;;;;5041346;22;20069;-83
2023/05/25 08:26:50;;;;;;;18.92;11.18;;;14.70;99.90;;;;;;5043806;22;20046;-90
2023/05/25 08:31:48;;;;;;;17.33;10.32;;;14.90;99.90;;;;;;5096426;22;20328;-83
2023/05/25 08:34:14;;;;;;;17.08;10.00;;;15.00;99.90;;;;;;5012642;28;20064;-84
2023/05/25 08:36:40;;;;;;;18.38;10.70;;;15.00;99.90;;;;;;5010993;28;20072;-83
2023/05/25 08:39:07;;;;;;;15.05;10.43;;;15.10;99.90;;;;;;4998594;28;20589;-89
2023/05/25 08:41:35;;;;;;;15.88;11.00;;;15.10;99.90;;;;;;4995228;28;21459;-89
2023/05/25 08:44:05;;;;;;;14.93;10.18;;;15.10;99.90;;;;;;4998402;28;20022;-90
2023/05/25 08:46:31;;;;;;;12.98;10.23;;;15.00;99.90;;;;;;4994883;28;20034;-93
2023/05/25 08:49:17;;;;;;;19.33;12.30;;;14.90;99.90;;;;;;4999370;28;20028;-87
2023/05/25 08:51:48;;;;;;;19.88;12.25;;;14.90;99.90;;;;;;4999177;28;20098;-85
2023/05/25 08:54:23;;;;;;;16.17;12.23;;;14.90;99.90;;;;;;4999246;28;20147;-88
2023/05/25 08:56:51;;;;;;;14.52;11.40;;;14.90;99.90;;;;;;5000139;28;20111;-86
2023/05/25 08:59:41;;;;;;;14.80;10.93;;;14.90;99.90;;;;;;5001551;28;20279;-86
2023/05/25 09:02:24;;;;;;;19.08;11.35;;;14.90;99.90;;;;;;4999565;28;20931;-85
2023/05/25 09:04:50;;;;;;;16.27;10.70;;;14.90;99.90;;;;;;4998388;28;20041;-85
2023/05/25 09:07:16;;;;;;;16.27;10.82;;;14.90;99.90;;;;;;4999857;28;20050;-85
2023/05/25 09:09:42;;;;;;;15.63;11.45;;;14.90;99.90;;;;;;5002554;28;20095;-85
2023/05/25 09:12:08;;;;;;;16.45;10.00;;;14.90;99.90;;;;;;5000446;28;20038;-86
2023/05/25 09:14:34;;;;;;;15.10;10.52;;;15.00;99.90;;;;;;4995712;28;20058;-87
2023/05/25 09:17:00;;;;;;;16.98;10.98;;;15.00;99.90;;;;;;5000330;28;20041;-86
2023/05/25 09:19:25;;;;;;;15.63;10.30;;;15.10;99.90;;;;;;4999989;28;20061;-85
2023/05/25 09:21:51;;;;;;;18.60;9.68;;;15.10;99.90;;;;;;4997842;28;20037;-86
2023/05/25 09:24:17;;;;;;;13.45;10.05;;;15.10;99.90;;;;;;4997412;28;20049;-86
2023/05/25 09:26:48;;;;;;;13.52;9.25;;;15.10;99.90;;;;;;4998460;28;21117;-86
2023/05/25 09:29:14;;;;;;;17.15;10.43;;;15.00;99.90;;;;;;4999773;28;20026;-86
2023/05/25 09:31:39;;;;;;;16.17;10.35;;;15.00;99.90;;;;;;4997794;28;20433;-85
2023/05/25 09:34:11;;;;;;;13.95;9.88;;;15.10;99.90;;;;;;4996388;28;20034;-88
2023/05/25 09:36:39;;;;;;;16.73;9.18;;;15.20;99.90;;;;;;4996499;28;21400;-86
2023/05/25 09:39:10;;;;;;;14.60;9.57;;;15.20;99.90;;;;;;4996355;28;20597;-85
2023/05/25 09:41:36;;;;;;;14.10;9.02;;;15.20;99.90;;;;;;4997604;28;21434;-85
2023/05/25 09:44:03;;;;;;;16.40;9.38;;;15.20;99.90;;;;;;4995509;28;20026;-86
2023/05/25 09:46:35;;;;;;;18.42;10.05;;;15.20;99.90;;;;;;4995522;28;20058;-88
2023/05/25 09:49:01;;;;;;;11.60;8.77;;;15.20;99.90;;;;;;4996462;28;20037;-86
2023/05/25 09:51:27;;;;;;;15.27;9.13;;;15.20;99.90;;;;;;5001314;28;20240;-87
2023/05/25 09:53:52;;;;;;;15.43;9.32;;;15.30;99.90;;;;;;5001849;28;20144;-84
2023/05/25 09:56:18;;;;;;;16.38;9.15;;;15.30;99.90;;;;;;4999403;28;20035;-86
2023/05/25 09:58:44;;;;;;;16.23;9.10;;;15.40;99.90;;;;;;5004026;28;21408;-84
2023/05/25 10:01:10;;;;;;;15.88;10.00;;;15.40;99.90;;;;;;4999669;28;20034;-85
2023/05/25 10:03:47;;;;;;;15.15;9.57;;;15.50;99.90;;;;;;4999195;28;20037;-84
2023/05/25 10:06:14;;;;;;;16.20;9.02;;;15.50;99.90;;;;;;5008349;28;20073;-84
2023/05/25 10:08:43;;;;;;;13.00;9.70;;;15.50;99.90;;;;;;5008900;28;20064;-84
2023/05/25 10:11:09;;;;;;;17.00;10.10;;;15.50;99.90;;;;;;5007246;28;20037;-85
2023/05/25 10:13:36;;;;;;;14.43;10.43;;;15.50;99.90;;;;;;5006487;28;20034;-83
2023/05/25 10:16:04;;;;;;;16.80;9.98;;;15.50;99.90;;;;;;5009374;28;20040;-84
2023/05/25 10:18:32;;;;;;;13.95;9.68;;;15.50;99.90;;;;;;5006026;28;20022;-83
2023/05/25 10:21:02;;;;;;;13.70;9.25;;;15.50;99.90;;;;;;5010186;28;20617;-84
2023/05/25 10:23:36;;;;;;;12.60;9.65;;;15.50;99.90;;;;;;4991431;28;20490;-83
2023/05/25 10:26:04;;;;;;;18.17;10.32;;;15.60;99.90;;;;;;5008058;28;20065;-85
2023/05/25 10:28:35;;;;;;;16.85;9.98;;;15.70;99.90;;;;;;5009716;28;20095;-84
2023/05/25 10:31:02;;;;;;;14.77;9.93;;;15.80;99.90;;;;;;5009078;28;20045;-84
2023/05/25 10:33:28;;;;;;;16.05;10.50;;;15.80;99.90;;;;;;5004978;28;20037;-84
2023/05/25 10:35:54;;;;;;;19.83;9.52;;;15.90;99.90;;;;;;5003537;28;20026;-83
2023/05/25 10:38:21;;;;;;;14.93;9.70;;;15.90;99.90;;;;;;5007038;28;20117;-84
2023/05/25 10:40:49;;;;;;;16.27;10.38;;;15.90;99.90;;;;;;5007519;28;20101;-85
2023/05/25 10:43:17;;;;;;;15.43;9.35;;;16.00;99.90;;;;;;5009316;28;20026;-84
2023/05/25 10:45:43;;;;;;;15.32;10.27;;;16.20;99.90;;;;;;5006458;28;20038;-84
2023/05/25 10:48:08;;;;;;;16.23;10.40;;;16.30;99.90;;;;;;5005187;28;20025;-79
2023/05/25 10:50:35;;;;;;;16.15;9.98;;;16.30;99.90;;;;;;5002584;28;20049;-81
2023/05/25 10:53:05;;;;;;;14.38;9.77;;;16.40;99.90;;;;;;5006112;28;20157;-80
2023/05/25 10:55:50;;;;;;;14.52;9.95;;;16.30;99.90;;;;;;5004655;28;20033;-80
2023/05/25 10:58:17;;;;;;;13.60;9.27;;;16.40;99.90;;;;;;5005032;28;20034;-81
2023/05/25 11:00:58;;;;;;;13.45;9.48;;;16.50;99.90;;;;;;5004932;28;20780;-80
2023/05/25 11:03:42;;;;;;;16.38;10.05;;;16.50;99.90;;;;;;5004380;28;20018;-81
2023/05/25 11:06:09;;;;;;;11.40;9.30;;;16.50;99.90;;;;;;5004307;28;20092;-80
2023/05/25 11:09:02;;;;;;;15.18;9.60;;;16.50;99.90;;;;;;5004511;28;20069;-82
2023/05/25 11:11:46;;;;;;;15.90;9.20;;;16.60;99.90;;;;;;5001455;28;20120;-80
2023/05/25 11:14:29;;;;;;;12.50;9.43;;;16.60;99.90;;;;;;5004974;28;20096;-81
2023/05/25 11:17:17;;;;;;;14.65;9.80;;;16.70;99.90;;;;;;5002673;28;20401;-81
2023/05/25 11:19:50;;;;;;;15.23;10.60;;;16.70;99.90;;;;;;5005461;28;20033;-81
2023/05/25 11:22:35;;;;;;;14.07;10.35;;;16.80;99.90;;;;;;5004758;28;20029;-81
2023/05/25 11:25:02;;;;;;;13.93;8.88;;;16.90;99.90;;;;;;5004896;28;20050;-81
2023/05/25 11:27:29;;;;;;;11.57;9.10;;;17.00;99.90;;;;;;5003264;28;20030;-81
2023/05/25 11:29:56;;;;;;;12.18;8.90;;;17.20;99.90;;;;;;5004773;28;20122;-80
2023/05/25 11:32:24;;;;;;;14.57;8.52;;;17.20;99.90;;;;;;5009239;28;20040;-81
2023/05/25 11:34:56;;;;;;;11.98;8.52;;;17.30;99.90;;;;;;5008349;28;20038;-81
2023/05/25 11:37:27;;;;;;;12.35;8.45;;;17.40;99.90;;;;;;5008953;28;20034;-81
2023/05/25 11:39:53;;;;;;;13.85;8.45;;;17.50;99.90;;;;;;5010035;28;20116;-82
2023/05/25 11:42:21;;;;;;;10.98;7.75;;;17.70;99.90;;;;;;5008620;28;20094;-82
2023/05/25 11:44:47;;;;;;;11.13;8.57;;;17.80;99.90;;;;;;5009893;28;20038;-82
2023/05/25 11:47:13;;;;;;;12.18;7.85;;;18.00;99.90;;;;;;5008803;28;20435;-82
2023/05/25 11:49:46;;;;;;;13.10;8.48;;;18.00;99.90;;;;;;5010960;28;20073;-82
2023/05/25 11:52:13;;;;;;;10.35;7.20;;;18.10;99.90;;;;;;5010276;28;20064;-82
2023/05/25 11:54:40;;;;;;;14.43;7.25;;;18.10;99.90;;;;;;5011459;28;20121;-82
2023/05/25 11:57:23;;;;;;;10.27;8.23;;;18.10;99.90;;;;;;5009758;28;20121;-82
2023/05/25 12:00:00;;;;;;;10.25;7.35;;;18.00;99.90;;;;;;5009844;28;20121;-82
2023/05/25 12:02:26;;;;;;;13.02;7.68;;;18.10;99.90;;;;;;5009530;28;20113;-82
2023/05/25 12:05:00;;;;;;;13.85;7.68;;;18.20;99.90;;;;;;5010992;28;20200;-83
2023/05/25 12:07:27;;;;;;;13.48;8.20;;;18.30;99.90;;;;;;5010585;28;20030;-83
2023/05/25 12:10:06;;;;;;;10.80;8.25;;;18.40;99.90;;;;;;5009472;28;20813;-82
2023/05/25 12:12:49;;;;;;;13.60;8.60;;;18.80;99.90;;;;;;5007468;28;20030;-82
2023/05/25 12:15:23;;;;;;;13.38;7.72;;;19.20;99.90;;;;;;5009071;28;20034;-83
2023/05/25 12:17:50;;;;;;;11.30;8.27;;;19.60;99.90;;;;;;5010066;28;20036;-83
2023/05/25 12:20:16;;;;;;;10.20;7.68;;;20.00;99.90;;;;;;5010368;28;20038;-79
2023/05/25 12:22:43;;;;;;;16.50;8.40;;;20.20;99.90;;;;;;5005446;28;20193;-79
2023/05/25 12:25:10;;;;;;;10.82;8.05;;;20.60;99.90;;;;;;5003629;28;20046;-79
2023/05/25 12:27:36;;;;;;;9.18;7.15;;;20.70;99.90;;;;;;5002910;28;20029;-78
2023/05/25 12:30:03;;;;;;;14.85;7.32;;;21.10;99.90;;;;;;5003250;28;20038;-79
2023/05/25 12:32:29;;;;;;;11.63;7.30;;;21.60;99.90;;;;;;5004297;28;20044;-79
2023/05/25 12:35:05;;;;;;;11.20;7.07;;;21.90;99.90;;;;;;5002267;28;20030;-79
2023/05/25 12:37:31;;;;;;;9.57;6.82;;;22.10;99.90;;;;;;5003015;28;20045;-78
2023/05/25 12:39:57;;;;;;;9.50;7.13;;;22.20;99.90;;;;;;5004761;28;20033;-79
2023/05/25 12:42:26;;;;;;;11.00;7.28;;;22.30;99.90;;;;;;5003118;28;20117;-79
2023/05/25 12:45:00;;;;;;;10.38;7.50;;;22.50;99.90;;;;;;5004822;28;20065;-80
2023/05/25 12:47:31;;;;;;;13.45;8.27;;;22.50;99.90;;;;;;5004204;28;20018;-80
2023/05/25 12:50:10;;;;;;;10.15;8.18;;;22.80;99.90;;;;;;5004806;28;20117;-79
2023/05/25 12:52:41;;;;;;;11.32;8.05;;;22.90;99.90;;;;;;5004010;28;20030;-80
2023/05/25 12:55:27;;;;;;;13.73;8.30;;;22.90;99.90;;;;;;5004191;28;20026;-80
2023/05/25 12:57:54;;;;;;;9.30;7.30;;;22.90;99.90;;;;;;5004175;28;20026;-80
2023/05/25 13:00:22;;;;;;;12.07;7.75;;;22.80;99.90;;;;;;5004905;28;20029;-79
2023/05/25 13:02:48;;;;;;;10.55;7.43;;;22.70;99.90;;;;;;5005152;28;20083;-79
2023/05/25 13:05:25;;;;;;;11.77;7.88;;;22.80;99.90;;;;;;5005141;28;20042;-80
2023/05/25 13:07:52;;;;;;;12.38;8.05;;;23.10;99.90;;;;;;5001526;28;20674;-80
2023/05/25 13:10:18;;;;;;;14.02;7.50;;;23.30;99.90;;;;;;4999008;28;20037;-80
2023/05/25 13:12:45;;;;;;;10.55;7.43;;;23.50;99.90;;;;;;4995851;28;20033;-80
2023/05/25 13:15:11;;;;;;;10.23;7.60;;;23.40;99.90;;;;;;4996839;28;20059;-80
2023/05/25 13:17:39;;;;;;;12.43;8.50;;;23.40;99.90;;;;;;4998022;28;20638;-80
2023/05/25 13:20:05;;;;;;;11.80;7.70;;;23.30;99.90;;;;;;4997961;28;20041;-80
2023/05/25 13:22:31;;;;;;;8.10;6.63;;;23.50;99.90;;;;;;4996860;28;20037;-80
2023/05/25 13:24:56;;;;;;;10.45;7.72;;;23.30;99.90;;;;;;4996058;28;20048;-81
2023/05/25 13:27:22;;;;;;;13.40;8.63;;;23.40;99.90;;;;;;4997626;28;20117;-80
2023/05/25 13:29:47;;;;;;;11.57;8.63;;;23.40;99.90;;;;;;4999274;28;20101;-80
2023/05/25 13:32:13;;;;;;;14.00;8.82;;;23.20;99.90;;;;;;4996044;28;20041;-80
2023/05/25 13:34:39;;;;;;;11.38;7.88;;;23.20;99.90;;;;;;4995861;28;20116;-80
2023/05/25 13:37:05;;;;;;;11.23;8.90;;;23.00;99.90;;;;;;4995966;28;20079;-80
2023/05/25 13:39:30;;;;;;;18.10;9.57;;;22.70;99.90;;;;;;4995489;28;20457;-80
2023/05/25 13:41:56;;;;;;;14.57;8.48;;;22.50;99.90;;;;;;4995027;28;20471;-79
2023/05/25 13:44:21;;;;;;;13.77;8.60;;;22.40;99.90;;;;;;4997095;28;20041;-79
2023/05/25 13:46:47;;;;;;;12.70;8.65;;;22.30;99.90;;;;;;4996644;28;20113;-80
2023/05/25 13:49:14;;;;;;;13.25;8.93;;;22.10;99.90;;;;;;4996451;28;20066;-79
2023/05/25 13:51:40;;;;;;;14.25;9.18;;;22.00;99.90;;;;;;4995401;28;20045;-79
2023/05/25 13:54:05;;;;;;;16.38;10.23;;;22.00;99.90;;;;;;4996970;28;20478;-79
2023/05/25 13:56:31;;;;;;;12.40;8.65;;;21.80;99.90;;;;;;4997504;28;20042;-80
2023/05/25 13:58:57;;;;;;;12.63;9.35;;;21.80;99.90;;;;;;4997733;28;20026;-80
2023/05/25 14:01:26;;;;;;;11.32;9.05;;;21.80;99.90;;;;;;4994311;28;21133;-80
2023/05/25 14:03:51;;;;;;;14.57;9.45;;;21.70;99.90;;;;;;4997850;28;20105;-80
2023/05/25 14:06:17;;;;;;;14.43;9.50;;;21.60;99.90;;;;;;4996916;28;20433;-79
2023/05/25 14:08:42;;;;;;;17.63;10.20;;;21.70;99.90;;;;;;4995870;28;20771;-79
2023/05/25 14:11:08;;;;;;;12.00;8.27;;;21.60;99.90;;;;;;4995056;28;20037;-80
2023/05/25 14:13:35;;;;;;;16.67;8.60;;;21.60;99.90;;;;;;4997205;28;20017;-79
2023/05/25 14:16:02;;;;;;;15.60;10.45;;;21.60;99.90;;;;;;4998337;28;20072;-79
2023/05/25 14:18:27;;;;;;;14.23;8.80;;;21.40;99.90;;;;;;4996054;28;20072;-79
2023/05/25 14:20:53;;;;;;;11.63;8.25;;;21.30;99.90;;;;;;4994205;28;20113;-80
2023/05/25 14:23:19;;;;;;;13.55;8.50;;;21.20;99.90;;;;;;4995415;28;20096;-79
2023/05/25 14:25:45;;;;;;;17.35;8.20;;;21.30;99.90;;;;;;4995440;28;20184;-79
2023/05/25 14:28:10;;;;;;;23.60;8.70;;;21.30;99.90;;;;;;4994945;28;20113;-80
2023/05/25 14:30:36;;;;;;;12.30;8.05;;;21.30;99.90;;;;;;4994114;28;20037;-80
2023/05/25 14:33:02;;;;;;;15.05;7.38;;;21.30;99.90;;;;;;4995671;28;20030;-80
2023/05/25 14:35:27;;;;;;;13.65;7.78;;;21.30;99.90;;;;;;4996499;28;20030;-79
2023/05/25 14:37:53;;;;;;;12.95;7.65;;;21.40;99.90;;;;;;4996715;28;20485;-81
2023/05/25 14:40:18;;;;;;;13.30;7.60;;;21.30;99.90;;;;;;4996660;28;20025;-79